createdAt,value
2019-04-11T08:10:41.558Z,15.70
2019-04-11T08:15:46.266Z,14.63
2019-04-11T08:20:50.538Z,14.13
2019-04-11T08:25:55.803Z,13.83
2019-04-11T08:30:59.820Z,13.83
2019-04-11T08:36:05.115Z,16.83
2019-04-11T08:41:09.463Z,15.50
2019-04-11T08:46:13.574Z,14.80
2019-04-11T08:51:19.177Z,15.70
2019-04-11T08:56:25.034Z,15.57
2019-04-11T09:01:33.869Z,16.50
2019-04-11T09:06:38.979Z,18.13
2019-04-11T09:11:44.657Z,16.10
2019-04-11T09:16:49.950Z,16.47
2019-04-11T09:21:54.295Z,13.77
2019-04-11T09:26:58.878Z,13.23
2019-04-11T09:32:04.296Z,16.47
2019-04-11T09:37:09.460Z,13.40
2019-04-11T09:42:14.639Z,13.63
2019-04-11T09:47:22.213Z,13.73
2019-04-11T09:52:26.957Z,13.83
2019-04-11T09:57:32.407Z,13.60
2019-04-11T10:02:37.035Z,11.23
2019-04-11T10:07:41.969Z,11.40
2019-04-11T10:12:46.522Z,10.50
2019-04-11T10:17:50.618Z,9.77
2019-04-11T10:22:56.346Z,9.60
2019-04-11T10:28:01.219Z,9.83
2019-04-11T10:33:06.616Z,10.93
2019-04-11T10:38:11.955Z,9.70
2019-04-11T10:43:16.295Z,10.80
2019-04-11T10:48:33.524Z,10.13
2019-04-11T10:58:57.868Z,10.43
2019-04-11T11:04:03.282Z,10.40
2019-04-11T11:09:08.011Z,11.30
2019-04-11T11:14:12.370Z,11.87
2019-04-11T11:19:33.719Z,11.40
2019-04-11T11:24:22.330Z,10.63
2019-04-11T11:29:28.926Z,10.17
2019-04-11T11:34:33.128Z,8.13
2019-04-11T11:39:37.551Z,9.97
2019-04-11T11:44:41.669Z,9.57
2019-04-11T11:49:55.545Z,8.43
2019-04-11T11:54:55.634Z,8.70
2019-04-11T12:00:00.793Z,8.87
2019-04-11T12:05:11.286Z,7.57
2019-04-11T12:10:13.909Z,8.70
2019-04-11T12:15:20.953Z,9.43
2019-04-11T12:20:24.937Z,9.50
2019-04-11T12:25:29.347Z,11.30
2019-04-11T12:30:35.580Z,10.27
2019-04-11T12:35:40.122Z,11.50
2019-04-11T12:40:44.258Z,10.47
2019-04-11T12:45:51.270Z,11.80
2019-04-11T12:50:57.599Z,12.43
2019-04-11T12:56:02.021Z,12.20
2019-04-11T13:01:06.069Z,12.77
2019-04-11T13:06:10.207Z,12.63
2019-04-11T13:11:14.429Z,12.83
2019-04-11T13:16:18.581Z,11.60
2019-04-11T13:21:23.189Z,12.07
2019-04-11T13:26:27.549Z,12.50
2019-04-11T13:31:31.749Z,12.87
2019-04-11T13:36:35.880Z,10.93
2019-04-11T13:41:39.963Z,11.07
2019-04-11T13:46:44.248Z,11.00
2019-04-11T13:51:48.847Z,11.40
2019-04-11T13:56:52.961Z,12.27
2019-04-11T14:01:57.252Z,12.77
2019-04-11T14:07:02.966Z,12.53
2019-04-11T14:12:10.203Z,12.97
2019-04-11T14:17:14.602Z,12.23
2019-04-11T14:22:18.761Z,13.33
2019-04-11T14:27:22.827Z,13.33
2019-04-11T14:32:27.030Z,11.57
2019-04-11T14:37:38.038Z,12.63
2019-04-11T14:42:37.129Z,12.50
2019-04-11T14:47:41.148Z,12.90
2019-04-11T14:52:46.706Z,13.13
2019-04-11T14:57:53.546Z,12.23
2019-04-11T15:02:56.959Z,12.27
2019-04-11T15:08:01.359Z,14.10
2019-04-11T15:13:05.331Z,12.40
2019-04-11T15:18:09.223Z,10.70
2019-04-11T15:23:13.297Z,11.57
2019-04-11T15:28:17.302Z,13.13
2019-04-11T15:33:21.670Z,10.70
2019-04-11T15:38:25.572Z,10.60
2019-04-11T15:43:29.482Z,12.90
2019-04-11T15:48:33.476Z,9.30
2019-04-11T15:53:37.537Z,10.73
2019-04-11T15:58:42.581Z,9.20
2019-04-11T16:03:47.177Z,9.97
2019-04-11T16:08:51.111Z,8.67
2019-04-11T16:13:55.041Z,9.00
2019-04-11T16:18:59.209Z,8.80
2019-04-11T16:24:03.228Z,7.87
2019-04-11T16:29:09.200Z,8.23
2019-04-11T16:34:15.903Z,7.70
2019-04-11T16:39:19.915Z,8.37
2019-04-11T16:44:25.526Z,7.60
2019-04-11T16:49:29.759Z,9.23
2019-04-11T16:54:33.899Z,7.87
2019-04-11T16:59:37.955Z,7.43
2019-04-11T17:04:42.110Z,7.23
2019-04-11T17:09:46.221Z,7.00
2019-04-11T17:14:50.255Z,7.60
2019-04-11T17:19:54.270Z,6.73
2019-04-11T17:24:58.347Z,7.03
2019-04-11T17:30:02.442Z,7.67
2019-04-11T17:35:06.791Z,7.00
2019-04-11T17:40:11.427Z,6.27
2019-04-11T17:45:15.499Z,6.83
2019-04-11T17:50:19.544Z,6.03
2019-04-11T17:55:24.510Z,7.07
2019-04-11T18:00:29.970Z,5.90
2019-04-11T18:05:34.410Z,7.13
2019-04-11T18:10:38.485Z,6.17
2019-04-11T18:15:45.606Z,6.60
2019-04-11T18:20:49.706Z,7.30
2019-04-11T18:25:53.667Z,6.60
2019-04-11T18:30:57.822Z,9.87
2019-04-11T18:36:02.862Z,7.33
2019-04-11T18:41:07.079Z,7.23
2019-04-11T18:46:11.119Z,7.77
2019-04-11T18:51:18.080Z,7.40
2019-04-11T18:56:22.163Z,7.17
2019-04-11T19:01:26.295Z,6.27
2019-04-11T19:06:31.324Z,8.37
2019-04-11T19:11:35.468Z,7.60
2019-04-11T19:16:39.427Z,6.17
2019-04-11T19:21:43.532Z,7.67
2019-04-11T19:26:47.526Z,6.20
2019-04-11T19:31:51.626Z,6.33
2019-04-11T19:36:55.807Z,6.00
2019-04-11T19:41:59.867Z,5.60
2019-04-11T19:47:04.047Z,6.87
2019-04-11T19:52:08.323Z,6.43
2019-04-11T19:57:12.450Z,6.10
2019-04-11T20:02:16.508Z,7.10
2019-04-11T20:07:20.549Z,9.40
2019-04-11T20:12:27.728Z,8.33
2019-04-11T20:17:43.763Z,7.83
2019-04-11T20:22:42.548Z,7.17
2019-04-11T20:27:48.084Z,5.77
2019-04-11T20:32:52.467Z,8.20
2019-04-11T20:37:56.488Z,7.43
2019-04-11T20:43:00.547Z,8.60
2019-04-11T20:48:04.747Z,8.00
2019-04-11T20:53:12.841Z,7.97
2019-04-11T20:58:26.540Z,8.00
2019-04-11T21:03:20.462Z,8.53
2019-04-11T21:08:24.506Z,8.37
2019-04-11T21:13:28.487Z,8.50
2019-04-11T21:18:32.480Z,8.93
2019-04-11T21:23:36.666Z,8.93
2019-04-11T21:28:40.768Z,8.43
2019-04-11T21:33:44.787Z,9.37
2019-04-11T21:38:48.867Z,9.20
2019-04-11T21:43:52.882Z,8.57
2019-04-11T21:48:56.987Z,9.27
2019-04-11T21:54:01.206Z,8.73
2019-04-11T21:59:05.426Z,8.90
2019-04-11T22:04:09.808Z,8.60
2019-04-11T22:09:16.836Z,8.37
2019-04-11T22:14:20.813Z,9.47
2019-04-11T22:19:24.676Z,9.70
2019-04-11T22:24:29.808Z,9.77
2019-04-11T22:29:35.626Z,9.57
2019-04-11T22:34:39.587Z,9.80
2019-04-11T22:39:43.466Z,9.60
2019-04-11T22:44:47.487Z,9.30
2019-04-11T22:49:51.441Z,10.20
2019-04-11T22:54:55.626Z,10.73
2019-04-11T22:59:59.627Z,10.27
2019-04-11T23:05:03.722Z,10.90
2019-04-11T23:10:07.911Z,9.63
2019-04-11T23:15:14.888Z,11.23
2019-04-11T23:20:17.685Z,9.20
2019-04-11T23:25:21.590Z,11.10
2019-04-11T23:30:25.543Z,10.83
2019-04-11T23:35:29.541Z,11.93
2019-04-11T23:40:33.486Z,10.50
2019-04-11T23:45:37.430Z,11.47
2019-04-11T23:50:41.436Z,11.13
2019-04-11T23:55:45.379Z,11.70
